createdAt,value
2022-09-26T00:01:36.153Z,13.38
2022-09-26T00:04:21.205Z,13.44
2022-09-26T00:06:52.269Z,13.25
2022-09-26T00:09:20.394Z,13.19
2022-09-26T00:11:48.142Z,13.38
2022-09-26T00:14:29.005Z,13.44
2022-09-26T00:16:57.734Z,13.38
2022-09-26T00:19:25.420Z,13.38
2022-09-26T00:21:52.940Z,13.31
2022-09-26T00:24:20.182Z,13.38
2022-09-26T00:26:47.721Z,13.25
2022-09-26T00:29:15.426Z,13.19
2022-09-26T00:31:46.273Z,13.38
2022-09-26T00:34:16.371Z,13.25
2022-09-26T00:36:43.815Z,13.31
2022-09-26T00:39:14.565Z,13.38
2022-09-26T00:41:42.476Z,13.38
2022-09-26T00:44:44.939Z,13.38
2022-09-26T00:47:47.155Z,13.25
2022-09-26T00:50:26.890Z,13.38
2022-09-26T00:53:06.559Z,13.38
2022-09-26T00:55:40.108Z,13.31
2022-09-26T00:58:18.014Z,13.31
2022-09-26T01:00:48.758Z,13.25
2022-09-26T01:03:16.965Z,13.31
2022-09-26T01:05:47.023Z,13.19
2022-09-26T01:08:17.185Z,13.25
2022-09-26T01:10:45.733Z,13.31
2022-09-26T01:13:13.896Z,13.25
2022-09-26T01:15:41.117Z,13.31
2022-09-26T01:18:08.329Z,13.31
2022-09-26T01:21:52.483Z,13.25
2022-09-26T01:58:05.026Z,13.06
2022-09-26T02:00:35.332Z,13.06
2022-09-26T02:03:06.072Z,13.19
2022-09-26T02:05:49.817Z,13.06
2022-09-26T02:08:47.097Z,13.13
2022-09-26T02:11:17.307Z,13.13
2022-09-26T02:13:57.239Z,13.13
2022-09-26T02:16:49.352Z,13.19
2022-09-26T02:19:29.642Z,13.13
2022-09-26T02:21:59.131Z,13.19
2022-09-26T02:24:26.824Z,13.19
2022-09-26T02:26:54.998Z,13.25
2022-09-26T02:29:22.388Z,13.31
2022-09-26T02:31:58.593Z,13.06
2022-09-26T02:34:26.626Z,13.06
2022-09-26T02:36:57.376Z,13.06
2022-09-26T02:39:25.713Z,13.13
2022-09-26T02:42:36.713Z,13.19
2022-09-26T02:45:49.808Z,13.19
2022-09-26T02:48:34.371Z,13.13
2022-09-26T02:51:36.217Z,13.00
2022-09-26T02:54:24.823Z,13.00
2022-09-26T02:57:23.074Z,13.00
2022-09-26T03:00:17.968Z,12.94
2022-09-26T03:03:03.593Z,12.94
2022-09-26T03:05:33.380Z,12.94
2022-09-26T03:08:10.165Z,12.94
2022-09-26T03:10:39.346Z,13.06
2022-09-26T03:13:13.377Z,13.06
2022-09-26T03:15:45.827Z,13.00
2022-09-26T03:18:20.659Z,13.06
2022-09-26T03:20:48.550Z,13.13
2022-09-26T03:23:16.088Z,13.13
2022-09-26T03:25:44.587Z,13.13
2022-09-26T03:28:13.141Z,13.06
2022-09-26T03:30:40.319Z,13.13
2022-09-26T03:33:08.883Z,13.00
2022-09-26T03:35:36.218Z,13.06
2022-09-26T03:38:03.399Z,13.06
2022-09-26T03:40:30.619Z,13.06
2022-09-26T03:42:57.817Z,13.13
2022-09-26T03:45:25.080Z,13.19
2022-09-26T03:47:59.175Z,13.13
2022-09-26T03:50:26.463Z,13.00
2022-09-26T03:52:53.767Z,13.13
2022-09-26T03:55:21.409Z,13.06
2022-09-26T03:57:48.607Z,13.06
2022-09-26T04:00:15.972Z,13.00
2022-09-26T04:02:43.460Z,12.81
2022-09-26T04:05:11.205Z,12.88
2022-09-26T04:07:38.381Z,12.81
2022-09-26T04:10:06.407Z,12.94
2022-09-26T04:12:33.597Z,13.06
2022-09-26T04:15:00.825Z,12.94
2022-09-26T04:17:29.465Z,12.88
2022-09-26T04:19:56.657Z,12.88
2022-09-26T04:22:25.223Z,13.00
2022-09-26T04:24:53.362Z,12.94
2022-09-26T04:27:20.649Z,13.00
2022-09-26T04:29:47.863Z,13.06
2022-09-26T04:32:15.910Z,13.00
2022-09-26T04:34:43.169Z,12.94
2022-09-26T04:37:10.401Z,12.88
2022-09-26T04:39:37.628Z,12.88
2022-09-26T04:42:05.048Z,12.94
2022-09-26T04:44:32.830Z,13.00
2022-09-26T04:47:00.056Z,13.00
2022-09-26T04:49:27.365Z,12.88
2022-09-26T04:51:54.546Z,13.00
2022-09-26T04:54:30.595Z,12.88
2022-09-26T04:57:01.200Z,13.00
2022-09-26T04:59:28.397Z,13.00
2022-09-26T05:01:56.408Z,13.00
2022-09-26T05:04:27.474Z,13.00
2022-09-26T05:06:55.892Z,13.00
2022-09-26T05:09:23.165Z,13.00
2022-09-26T05:11:50.405Z,13.06
2022-09-26T05:14:17.632Z,13.00
2022-09-26T05:16:45.182Z,12.94
2022-09-26T05:19:12.485Z,13.00
2022-09-26T05:21:39.639Z,13.00
2022-09-26T05:24:25.248Z,13.06
2022-09-26T05:26:53.447Z,13.00
2022-09-26T05:29:21.773Z,13.06
2022-09-26T05:31:49.140Z,12.94
2022-09-26T05:34:19.862Z,12.94
2022-09-26T05:36:48.022Z,13.00
2022-09-26T05:39:47.734Z,13.06
2022-09-26T05:42:15.451Z,13.13
2022-09-26T05:44:42.683Z,13.06
2022-09-26T05:47:09.936Z,13.13
2022-09-26T05:49:37.176Z,13.13
2022-09-26T05:52:04.707Z,13.19
2022-09-26T05:54:31.957Z,13.25
2022-09-26T05:56:59.234Z,13.25
2022-09-26T05:59:26.548Z,13.25
2022-09-26T06:01:54.515Z,13.19
2022-09-26T06:04:21.740Z,13.19
2022-09-26T06:06:49.006Z,13.13
2022-09-26T06:09:16.247Z,13.13
2022-09-26T06:11:43.664Z,13.13
2022-09-26T06:14:10.887Z,13.06
2022-09-26T06:16:38.205Z,13.13
2022-09-26T06:19:05.711Z,13.25
2022-09-26T06:21:33.795Z,13.25
2022-09-26T06:24:01.180Z,13.31
2022-09-26T06:26:29.081Z,13.38
2022-09-26T06:28:58.335Z,13.31
2022-09-26T06:31:26.211Z,13.31
2022-09-26T06:33:55.197Z,13.19
2022-09-26T06:36:26.015Z,13.13
2022-09-26T06:38:55.886Z,13.06
2022-09-26T06:41:24.848Z,13.00
2022-09-26T06:43:52.094Z,12.94
2022-09-26T06:46:20.574Z,13.00
2022-09-26T06:48:48.328Z,13.00
2022-09-26T06:51:15.618Z,13.00
2022-09-26T06:53:45.967Z,13.06
2022-09-26T06:56:13.488Z,12.94
2022-09-26T06:58:41.813Z,13.06
2022-09-26T07:01:09.562Z,13.00
2022-09-26T07:03:39.455Z,13.13
2022-09-26T07:06:09.117Z,13.19
2022-09-26T07:09:00.877Z,13.06
2022-09-26T07:14:17.256Z,13.19
2022-09-26T07:19:20.746Z,13.19
2022-09-26T07:21:48.572Z,13.19
2022-09-26T07:24:15.763Z,13.19
2022-09-26T07:26:43.778Z,13.31
2022-09-26T07:29:11.199Z,13.25
2022-09-26T07:31:38.987Z,13.25
2022-09-26T07:34:07.754Z,13.19
2022-09-26T07:36:35.249Z,13.13
2022-09-26T07:39:02.407Z,13.25
2022-09-26T07:41:31.227Z,13.31
2022-09-26T07:47:05.508Z,13.50
2022-09-26T07:50:11.157Z,13.38
2022-09-26T07:52:38.930Z,13.31
2022-09-26T07:55:08.005Z,13.50
2022-09-26T07:57:35.623Z,13.50
2022-09-26T08:00:12.680Z,13.50
2022-09-26T08:02:42.849Z,13.56
2022-09-26T08:05:17.735Z,13.56
2022-09-26T08:07:45.046Z,13.63
2022-09-26T08:10:21.236Z,13.69
2022-09-26T08:12:48.843Z,13.81
2022-09-26T08:15:16.999Z,13.81
2022-09-26T08:17:44.524Z,13.75
2022-09-26T08:20:11.825Z,13.88
2022-09-26T08:22:39.030Z,14.00
2022-09-26T08:25:07.299Z,13.94
2022-09-26T08:27:35.619Z,13.94
2022-09-26T08:30:04.401Z,14.06
2022-09-26T08:32:32.327Z,14.13
2022-09-26T08:35:00.216Z,14.06
2022-09-26T08:37:28.440Z,14.13
2022-09-26T08:39:55.628Z,14.19
2022-09-26T08:42:52.195Z,14.13
2022-09-26T08:46:05.143Z,14.31
2022-09-26T08:49:01.077Z,14.56
2022-09-26T08:51:54.820Z,14.69
2022-09-26T08:54:41.271Z,14.75
2022-09-26T08:57:29.705Z,14.81
2022-09-26T08:59:56.953Z,14.81
2022-09-26T09:02:39.113Z,14.69
2022-09-26T09:05:23.505Z,14.81
2022-09-26T09:07:56.054Z,14.81
2022-09-26T09:10:41.454Z,14.69
2022-09-26T09:13:25.584Z,14.81
2022-09-26T09:16:16.992Z,14.88
2022-09-26T09:19:08.697Z,15.13
2022-09-26T09:22:20.351Z,15.06
2022-09-26T09:25:00.489Z,15.06
2022-09-26T09:27:52.763Z,15.00
2022-09-26T09:30:36.076Z,15.00
2022-09-26T09:33:24.065Z,15.13
2022-09-26T09:36:03.769Z,15.13
2022-09-26T09:38:35.057Z,15.25
2022-09-26T09:41:14.831Z,15.19
2022-09-26T09:43:48.289Z,15.25
2022-09-26T09:46:28.948Z,15.31
2022-09-26T09:49:24.548Z,15.38
2022-09-26T09:52:06.428Z,15.44
2022-09-26T09:55:04.970Z,15.75
2022-09-26T09:57:57.082Z,15.88
2022-09-26T10:00:27.730Z,15.88
2022-09-26T10:03:03.702Z,15.88
2022-09-26T10:08:32.910Z,15.75
2022-09-26T10:11:31.643Z,15.69
2022-09-26T10:14:05.316Z,15.75
2022-09-26T10:16:34.905Z,15.69
2022-09-26T10:19:07.906Z,15.88
2022-09-26T10:21:40.808Z,15.56
2022-09-26T10:24:16.358Z,15.56
2022-09-26T10:26:44.829Z,15.69
2022-09-26T10:29:34.377Z,15.88
2022-09-26T10:32:03.096Z,15.94
2022-09-26T10:34:34.222Z,16.00
2022-09-26T10:37:24.533Z,16.13
2022-09-26T10:40:16.525Z,15.88
2022-09-26T10:42:47.034Z,15.88
2022-09-26T10:45:27.237Z,16.06
2022-09-26T10:47:56.856Z,16.00
2022-09-26T10:50:28.058Z,16.19
2022-09-26T10:53:08.490Z,16.44
2022-09-26T10:55:51.435Z,16.44
2022-09-26T10:58:24.064Z,16.31
2022-09-26T11:00:52.982Z,16.25
2022-09-26T11:03:45.298Z,16.25
2022-09-26T11:06:36.232Z,16.19
2022-09-26T11:09:04.735Z,16.38
2022-09-26T11:11:38.247Z,16.25
2022-09-26T11:14:08.629Z,16.19
2022-09-26T11:17:00.366Z,16.44
2022-09-26T11:19:54.892Z,16.63
2022-09-26T11:22:38.510Z,16.50
2022-09-26T11:25:17.895Z,16.56
2022-09-26T11:27:52.194Z,16.44
2022-09-26T11:30:22.299Z,16.44
2022-09-26T11:32:52.293Z,16.50
2022-09-26T11:35:29.775Z,16.31
2022-09-26T11:38:39.070Z,16.31
2022-09-26T11:41:53.114Z,16.38
2022-09-26T11:44:42.392Z,16.31
2022-09-26T11:47:31.292Z,16.25
2022-09-26T11:50:23.726Z,16.38
2022-09-26T11:53:26.915Z,16.50
2022-09-26T11:56:50.469Z,16.25
2022-09-26T11:59:52.808Z,16.19
2022-09-26T12:02:40.881Z,16.25
2022-09-26T12:05:49.104Z,16.50
2022-09-26T12:08:57.881Z,16.81
2022-09-26T12:11:59.287Z,17.13
2022-09-26T12:14:37.099Z,17.19
2022-09-26T12:17:18.208Z,17.25
2022-09-26T12:19:57.464Z,16.63
2022-09-26T12:22:38.055Z,16.44
2022-09-26T12:25:36.469Z,16.81
2022-09-26T12:28:16.426Z,16.63
2022-09-26T12:31:23.902Z,16.38
2022-09-26T12:34:24.774Z,16.44
2022-09-26T12:36:54.750Z,16.50
2022-09-26T12:39:30.730Z,16.56
2022-09-26T12:42:04.774Z,16.56
2022-09-26T12:44:37.858Z,16.63
2022-09-26T12:47:45.095Z,16.56
2022-09-26T12:50:59.362Z,16.56
2022-09-26T12:53:44.314Z,16.56
2022-09-26T12:56:26.719Z,16.50
2022-09-26T12:59:12.872Z,16.50
2022-09-26T13:02:06.918Z,16.38
2022-09-26T13:04:58.779Z,16.56
2022-09-26T13:07:42.252Z,16.56
2022-09-26T13:10:22.199Z,16.69
2022-09-26T13:13:27.985Z,16.63
2022-09-26T13:16:27.917Z,16.50
2022-09-26T13:19:29.946Z,16.56
2022-09-26T13:22:06.285Z,16.50
2022-09-26T13:25:21.199Z,16.44
2022-09-26T13:28:16.664Z,16.13
2022-09-26T13:30:58.143Z,16.13
2022-09-26T13:33:35.545Z,16.19
2022-09-26T13:36:04.518Z,16.19
2022-09-26T13:39:00.431Z,16.13
2022-09-26T13:42:01.920Z,16.19
2022-09-26T13:44:55.902Z,16.25
2022-09-26T13:47:49.361Z,16.19
2022-09-26T13:50:56.073Z,16.06
2022-09-26T13:53:56.029Z,15.88
2022-09-26T13:56:35.180Z,16.06
2022-09-26T13:59:14.842Z,16.19
2022-09-26T14:02:24.636Z,16.06
2022-09-26T14:05:19.035Z,16.25
2022-09-26T14:08:12.387Z,16.25
2022-09-26T14:10:43.337Z,16.06
2022-09-26T14:13:10.432Z,15.88
2022-09-26T14:15:57.170Z,15.88
2022-09-26T14:18:54.824Z,15.94
2022-09-26T14:24:37.249Z,16.06
2022-09-26T14:27:13.072Z,16.13
2022-09-26T14:29:40.360Z,16.00
2022-09-26T14:32:20.030Z,15.75
2022-09-26T14:34:59.331Z,16.00
2022-09-26T14:37:42.030Z,15.94
2022-09-26T14:40:33.919Z,15.81
2022-09-26T14:43:19.420Z,15.69
2022-09-26T14:46:01.272Z,15.81
2022-09-26T14:48:40.985Z,15.81
2022-09-26T14:51:11.153Z,15.81
2022-09-26T14:53:58.676Z,15.75
2022-09-26T14:56:29.412Z,15.75
2022-09-26T14:59:33.314Z,15.69
2022-09-26T15:02:34.935Z,15.75
2022-09-26T15:05:19.279Z,15.88
2022-09-26T15:07:50.750Z,15.88
2022-09-26T15:10:26.997Z,15.75
2022-09-26T15:13:25.158Z,15.81
2022-09-26T15:16:19.785Z,15.88
2022-09-26T15:18:56.647Z,15.94
2022-09-26T15:21:59.175Z,15.81
2022-09-26T15:24:33.569Z,15.88
2022-09-26T15:27:27.324Z,15.81
2022-09-26T15:30:03.982Z,15.88
2022-09-26T15:32:33.559Z,15.75
2022-09-26T15:35:03.415Z,15.63
2022-09-26T15:37:34.965Z,15.56
2022-09-26T15:40:25.092Z,15.44
2022-09-26T15:43:08.010Z,15.44
2022-09-26T15:45:41.095Z,15.38
2022-09-26T15:48:20.434Z,15.25
2022-09-26T15:51:26.467Z,15.25
2022-09-26T15:53:55.206Z,15.13
2022-09-26T15:56:36.854Z,15.00
2022-09-26T15:59:32.331Z,14.94
2022-09-26T16:02:00.830Z,14.88
2022-09-26T16:04:33.107Z,14.88
2022-09-26T16:07:07.168Z,14.69
2022-09-26T16:09:36.775Z,14.63
2022-09-26T16:12:31.797Z,14.56
2022-09-26T16:15:16.946Z,14.56
2022-09-26T16:17:53.018Z,14.50
2022-09-26T16:20:20.933Z,14.38
2022-09-26T16:22:53.574Z,14.38
2022-09-26T16:25:56.324Z,14.38
2022-09-26T16:28:42.585Z,14.31
2022-09-26T16:31:21.093Z,14.13
2022-09-26T16:33:54.418Z,14.13
2022-09-26T16:36:30.103Z,13.88
2022-09-26T16:39:07.330Z,13.75
2022-09-26T16:42:00.698Z,13.88
2022-09-26T16:44:35.406Z,13.75
2022-09-26T16:47:27.302Z,13.69
2022-09-26T16:49:54.571Z,13.63
2022-09-26T16:52:32.011Z,13.56
2022-09-26T16:55:03.129Z,13.50
2022-09-26T16:57:35.521Z,13.50
2022-09-26T17:00:35.950Z,13.44
2022-09-26T17:03:15.554Z,13.38
2022-09-26T17:05:42.789Z,13.31
2022-09-26T17:08:11.089Z,13.31
2022-09-26T17:10:38.858Z,13.31
2022-09-26T17:13:07.070Z,13.25
2022-09-26T17:15:35.480Z,13.25
2022-09-26T17:18:08.254Z,13.38
2022-09-26T17:20:35.490Z,13.38
2022-09-26T17:23:22.035Z,13.25
2022-09-26T17:25:54.149Z,13.19
2022-09-26T17:28:39.018Z,13.25
2022-09-26T17:31:08.642Z,13.06
2022-09-26T17:33:40.692Z,12.88
2022-09-26T17:36:10.974Z,12.75
2022-09-26T17:38:41.269Z,12.56
2022-09-26T17:41:12.694Z,12.69
2022-09-26T17:43:40.171Z,12.75
2022-09-26T17:46:15.046Z,12.69
2022-09-26T17:48:42.925Z,12.75
2022-09-26T17:51:14.123Z,12.56
2022-09-26T17:53:57.454Z,12.63
2022-09-26T17:56:26.320Z,12.69
2022-09-26T17:58:54.299Z,12.63
2022-09-26T18:01:35.020Z,12.44
2022-09-26T18:04:11.192Z,12.44
2022-09-26T18:06:38.728Z,12.69
2022-09-26T18:09:10.076Z,12.44
2022-09-26T18:11:38.094Z,12.25
2022-09-26T18:14:08.088Z,12.25
2022-09-26T18:16:35.614Z,12.25
2022-09-26T18:19:14.121Z,12.38
2022-09-26T18:21:41.572Z,12.38
2022-09-26T18:24:19.454Z,12.38
2022-09-26T18:26:50.743Z,12.38
2022-09-26T18:29:35.593Z,12.25
2022-09-26T18:32:05.816Z,12.19
2022-09-26T18:34:33.148Z,12.00
2022-09-26T18:37:00.644Z,11.88
2022-09-26T18:39:29.197Z,12.00
2022-09-26T18:42:02.620Z,12.06
2022-09-26T18:44:34.993Z,11.94
2022-09-26T18:47:07.908Z,11.81
2022-09-26T19:01:38.477Z,12.06
2022-09-26T19:04:17.746Z,11.75
2022-09-26T19:06:49.510Z,11.81
2022-09-26T19:09:20.469Z,11.94
2022-09-26T19:11:48.432Z,11.88
2022-09-26T19:14:28.635Z,11.75
2022-09-26T19:16:56.927Z,11.63
2022-09-26T19:19:25.602Z,11.81
2022-09-26T19:21:55.661Z,11.75
2022-09-26T19:24:40.850Z,11.75
2022-09-26T19:27:28.208Z,11.63
2022-09-26T19:30:06.612Z,11.56
2022-09-26T19:32:42.324Z,11.50
2022-09-26T19:35:30.499Z,11.38
2022-09-26T19:37:59.618Z,11.50
2022-09-26T19:40:28.181Z,11.56
2022-09-26T19:42:57.158Z,11.44
2022-09-26T19:45:25.272Z,11.44
2022-09-26T19:47:55.027Z,11.19
2022-09-26T19:50:26.489Z,11.19
2022-09-26T19:52:56.693Z,11.13
2022-09-26T19:55:28.777Z,11.19
2022-09-26T19:58:11.092Z,11.31
2022-09-26T20:00:41.619Z,11.56
2022-09-26T20:03:17.904Z,11.44
2022-09-26T20:05:50.000Z,11.44
2022-09-26T20:08:22.118Z,11.25
2022-09-26T20:10:54.329Z,11.13
2022-09-26T20:13:22.011Z,11.06
2022-09-26T20:15:49.634Z,10.94
2022-09-26T20:18:21.929Z,11.06
2022-09-26T20:20:54.502Z,11.13
2022-09-26T20:23:25.514Z,11.13
2022-09-26T20:25:54.728Z,11.06
2022-09-26T20:28:22.147Z,11.06
2022-09-26T20:30:52.456Z,11.00
2022-09-26T20:33:22.377Z,10.94
2022-09-26T20:36:04.491Z,11.06
2022-09-26T20:38:38.365Z,10.94
2022-09-26T20:41:15.210Z,11.13
2022-09-26T20:43:49.190Z,11.06
2022-09-26T20:46:19.699Z,10.94
2022-09-26T20:48:48.348Z,10.88
2022-09-26T20:51:28.998Z,10.81
2022-09-26T20:54:00.115Z,10.63
2022-09-26T20:56:28.025Z,10.75
2022-09-26T20:58:55.387Z,10.75
2022-09-26T21:01:23.321Z,10.88
2022-09-26T21:03:55.062Z,10.94
2022-09-26T21:06:35.196Z,10.94
2022-09-26T21:09:03.481Z,10.88
2022-09-26T21:11:30.749Z,10.94
2022-09-26T21:13:57.940Z,10.81
2022-09-26T21:16:25.686Z,10.69
2022-09-26T21:18:53.820Z,10.69
2022-09-26T21:21:30.473Z,10.81
2022-09-26T21:23:59.775Z,10.75
2022-09-26T21:26:31.274Z,10.81
2022-09-26T21:28:58.996Z,10.88
2022-09-26T21:31:32.640Z,10.75
2022-09-26T21:34:01.048Z,10.75
2022-09-26T21:36:38.069Z,10.63
2022-09-26T21:39:05.659Z,10.56
2022-09-26T21:41:33.486Z,10.44
2022-09-26T21:44:28.726Z,10.56
2022-09-26T21:46:55.987Z,10.88
2022-09-26T21:49:23.333Z,10.75
2022-09-26T21:51:58.506Z,10.81
2022-09-26T21:54:41.987Z,10.69
2022-09-26T21:57:17.515Z,10.56
2022-09-26T21:59:45.859Z,10.63
2022-09-26T22:02:13.064Z,10.63
2022-09-26T22:04:40.920Z,10.75
2022-09-26T22:09:44.212Z,10.81
2022-09-26T22:12:11.464Z,10.69
2022-09-26T22:14:38.616Z,10.75
2022-09-26T22:17:05.962Z,10.69
2022-09-26T22:19:41.211Z,10.50
2022-09-26T22:22:09.044Z,10.69
2022-09-26T22:24:37.067Z,10.63
2022-09-26T22:27:05.664Z,10.81
2022-09-26T22:29:32.927Z,10.81
2022-09-26T22:32:00.505Z,10.69
2022-09-26T22:34:27.736Z,10.81
2022-09-26T22:36:54.949Z,10.88
2022-09-26T22:39:22.377Z,10.81
2022-09-26T22:41:57.097Z,10.88
2022-09-26T22:44:24.415Z,10.75
2022-09-26T22:46:51.610Z,10.75
2022-09-26T22:49:18.770Z,10.69
2022-09-26T22:51:45.916Z,10.56
2022-09-26T22:54:13.083Z,10.50
2022-09-26T22:56:40.320Z,10.56
2022-09-26T22:59:07.534Z,10.75
2022-09-26T23:01:34.961Z,10.63
2022-09-26T23:04:02.459Z,10.69
2022-09-26T23:06:31.711Z,10.63
2022-09-26T23:08:59.263Z,10.75
2022-09-26T23:11:27.996Z,10.63
2022-09-26T23:13:55.347Z,10.63
2022-09-26T23:16:24.650Z,10.69
2022-09-26T23:18:52.520Z,10.88
2022-09-26T23:21:26.509Z,10.81
2022-09-26T23:23:57.051Z,10.75
2022-09-26T23:26:31.696Z,10.81
2022-09-26T23:29:00.078Z,10.94
2022-09-26T23:31:28.591Z,10.75
2022-09-26T23:33:57.391Z,10.56
2022-09-26T23:36:25.427Z,10.38
2022-09-26T23:38:53.976Z,10.44
2022-09-26T23:41:21.214Z,10.75
2022-09-26T23:43:48.401Z,10.69
2022-09-26T23:46:15.998Z,10.50
2022-09-26T23:48:43.550Z,10.56
2022-09-26T23:51:10.938Z,10.75
2022-09-26T23:53:38.375Z,10.69
2022-09-26T23:56:09.086Z,10.50
2022-09-26T23:58:37.410Z,10.44
